Time,TemperatureF,DewpointF,PressureIn,WindDirection,WindDirectionDegrees,WindSpeedMPH,WindSpeedGustMPH,Humidity,HourlyPrecipIn,Conditions,Clouds,dailyrainin,SolarRadiationWatts/m^2,SoftwareType,DateUTC
2013-02-14 00:12:00,34.4,17.0,30.07,NNW,331,2.0,-999.0,50,-99.99,,,0.00,0,weatherlink.com 1.10,2013-02-14 07:12:00,
2013-02-14 00:27:00,34.3,17.0,30.07,NW,325,2.0,-999.0,49,-99.99,,,0.00,0,weatherlink.com 1.10,2013-02-14 07:27:00,
2013-02-14 00:43:00,34.3,17.0,30.08,NW,307,3.0,-999.0,50,-99.99,,,0.00,0,weatherlink.com 1.10,2013-02-14 07:43:00,
2013-02-14 00:58:00,34.1,17.0,30.09,NW,306,4.0,-999.0,50,-99.99,,,0.00,0,weatherlink.com 1.10,2013-02-14 07:58:00,
2013-02-14 01:13:00,33.9,18.0,30.09,NNW,327,6.0,-999.0,53,-99.99,,,0.00,0,weatherlink.com 1.10,2013-02-14 08:13:00,
2013-02-14 01:28:00,33.5,18.0,30.10,NNW,335,4.0,-999.0,54,-99.99,,,0.00,0,weatherlink.com 1.10,2013-02-14 08:28:00,
2013-02-14 01:43:00,32.8,19.0,30.10,NNW,330,4.0,-999.0,57,-99.99,,,0.00,0,weatherlink.com 1.10,2013-02-14 08:43:00,
2013-02-14 01:58:00,32.2,21.0,30.11,North,349,3.0,-999.0,63,-99.99,,,0.00,0,weatherlink.com 1.10,2013-02-14 08:58:00,
2013-02-14 02:13:00,31.4,22.0,30.11,North,355,4.0,-999.0,67,-99.99,,,0.00,0,weatherlink.com 1.10,2013-02-14 09:13:00,
2013-02-14 02:28:00,32.0,20.0,30.10,NNW,337,8.0,-999.0,62,-99.99,,,0.00,0,weatherlink.com 1.10,2013-02-14 09:28:00,
2013-02-14 02:43:00,32.2,20.0,30.09,NW,323,10.0,-999.0,61,-99.99,,,0.00,0,weatherlink.com 1.10,2013-02-14 09:43:00,
2013-02-14 02:58:00,32.7,19.0,30.09,NW,317,3.0,-999.0,57,-99.99,,,0.00,0,weatherlink.com 1.10,2013-02-14 09:58:00,
2013-02-14 03:13:00,32.9,19.0,30.08,WNW,294,9.0,-999.0,57,-99.99,,,0.00,0,weatherlink.com 1.10,2013-02-14 10:13:00,
2013-02-14 03:28:00,32.7,18.0,30.07,West,281,10.0,-999.0,56,-99.99,,,0.00,0,weatherlink.com 1.10,2013-02-14 10:28:00,
2013-02-14 03:43:00,33.0,18.0,30.06,NW,306,7.0,-999.0,55,-99.99,,,0.00,0,weatherlink.com 1.10,2013-02-14 10:43:00,
2013-02-14 03:58:00,33.0,18.0,30.07,NW,315,3.0,-999.0,54,-99.99,,,0.00,0,weatherlink.com 1.10,2013-02-14 10:58:00,
2013-02-14 04:13:00,33.5,17.0,30.07,NNW,333,2.0,-999.0,51,-99.99,,,0.00,0,weatherlink.com 1.10,2013-02-14 11:13:00,
2013-02-14 04:28:00,33.9,15.0,30.07,NNW,332,5.0,-999.0,47,-99.99,,,0.00,0,weatherlink.com 1.10,2013-02-14 11:28:00,
2013-02-14 04:43:00,34.2,15.0,30.08,NNW,335,7.0,-999.0,45,-99.99,,,0.00,0,weatherlink.com 1.10,2013-02-14 11:43:00,
2013-02-14 04:58:00,33.9,14.0,30.09,NNW,346,4.0,-999.0,45,-99.99,,,0.00,0,weatherlink.com 1.10,2013-02-14 11:58:00,
2013-02-14 05:13:00,33.7,15.0,30.10,NNW,334,7.0,-999.0,47,-99.99,,,0.00,0,weatherlink.com 1.10,2013-02-14 12:13:00,
2013-02-14 05:28:00,32.9,16.0,30.11,NNW,341,3.0,-999.0,50,-99.99,,,0.00,0,weatherlink.com 1.10,2013-02-14 12:28:00,
2013-02-14 05:43:00,32.6,16.0,30.11,NNW,333,6.0,-999.0,50,-99.99,,,0.00,0,weatherlink.com 1.10,2013-02-14 12:43:00,
2013-02-14 05:58:00,32.3,15.0,30.12,NW,319,7.0,-999.0,50,-99.99,,,0.00,0,weatherlink.com 1.10,2013-02-14 12:58:00,
2013-02-14 06:13:00,31.8,15.0,30.13,NW,317,6.0,-999.0,51,-99.99,,,0.00,0,weatherlink.com 1.10,2013-02-14 13:13:00,
2013-02-14 06:28:00,31.5,17.0,30.13,NW,326,5.0,-999.0,55,-99.99,,,0.00,0,weatherlink.com 1.10,2013-02-14 13:28:00,
2013-02-14 06:43:00,30.8,16.0,30.14,NW,322,10.0,-999.0,54,-99.99,,,0.00,0,weatherlink.com 1.10,2013-02-14 13:43:00,
2013-02-14 06:58:00,30.5,16.0,30.16,NNW,340,7.0,-999.0,54,-99.99,,,0.00,0,weatherlink.com 1.10,2013-02-14 13:58:00,
2013-02-14 07:13:00,29.9,15.0,30.16,NW,315,5.0,-999.0,55,-99.99,,,0.00,11,weatherlink.com 1.10,2013-02-14 14:13:00,
2013-02-14 07:28:00,30.1,15.0,30.17,NW,321,5.0,-999.0,54,-99.99,,,0.00,35,weatherlink.com 1.10,2013-02-14 14:28:00,
2013-02-14 07:43:00,30.9,15.0,30.18,NW,317,8.0,-999.0,53,-99.99,,,0.00,46,weatherlink.com 1.10,2013-02-14 14:43:00,
2013-02-14 07:58:00,31.1,16.0,30.19,NNW,330,6.0,-999.0,54,-99.99,,,0.00,121,weatherlink.com 1.10,2013-02-14 14:58:00,
2013-02-14 08:13:00,31.5,16.0,30.19,NW,305,7.0,-999.0,52,-99.99,,,0.00,111,weatherlink.com 1.10,2013-02-14 15:13:00,
2013-02-14 08:29:00,31.7,16.0,30.20,NW,325,16.0,-999.0,53,-99.99,,,0.00,107,weatherlink.com 1.10,2013-02-14 15:29:00,
2013-02-14 08:44:00,31.2,17.0,30.22,NW,318,13.0,-999.0,57,-99.99,,,0.00,83,weatherlink.com 1.10,2013-02-14 15:44:00,
2013-02-14 08:59:00,31.0,18.0,30.23,NNW,328,8.0,-999.0,58,-99.99,,,0.00,167,weatherlink.com 1.10,2013-02-14 15:59:00,
2013-02-14 09:14:00,27.6,23.0,30.25,NNW,346,9.0,-999.0,81,-99.99,,,0.00,33,weatherlink.com 1.10,2013-02-14 16:14:00,
2013-02-14 09:29:00,28.7,24.0,30.26,North,355,14.0,-999.0,83,-99.99,,,0.00,113,weatherlink.com 1.10,2013-02-14 16:29:00,
2013-02-14 09:44:00,29.4,21.0,30.27,NNW,345,16.0,-999.0,72,-99.99,,,0.00,204,weatherlink.com 1.10,2013-02-14 16:44:00,
2013-02-14 09:59:00,29.0,20.0,30.28,North,9,11.0,-999.0,70,-99.99,,,0.00,185,weatherlink.com 1.10,2013-02-14 16:59:00,
2013-02-14 10:14:00,30.6,21.0,30.28,NNW,344,12.0,-999.0,68,-99.99,,,0.00,243,weatherlink.com 1.10,2013-02-14 17:14:00,
2013-02-14 10:29:00,30.7,19.0,30.29,NNW,329,11.0,-999.0,62,-99.99,,,0.00,167,weatherlink.com 1.10,2013-02-14 17:29:00,
2013-02-14 10:44:00,30.9,20.0,30.30,NNW,341,12.0,-999.0,63,-99.99,,,0.00,176,weatherlink.com 1.10,2013-02-14 17:44:00,
2013-02-14 10:59:00,31.7,19.0,30.31,NNW,332,7.0,-999.0,60,-99.99,,,0.00,425,weatherlink.com 1.10,2013-02-14 17:59:00,
2013-02-14 11:14:00,31.3,18.0,30.31,NNW,335,8.0,-999.0,59,-99.99,,,0.00,139,weatherlink.com 1.10,2013-02-14 18:14:00,
2013-02-14 11:29:00,30.9,19.0,30.31,NNW,333,13.0,-999.0,62,-99.99,,,0.00,267,weatherlink.com 1.10,2013-02-14 18:29:00,
2013-02-14 11:44:00,32.1,18.0,30.31,NNW,342,13.0,-999.0,56,-99.99,,,0.00,179,weatherlink.com 1.10,2013-02-14 18:44:00,
2013-02-14 11:59:00,31.0,17.0,30.32,NNW,338,11.0,-999.0,57,-99.99,,,0.00,128,weatherlink.com 1.10,2013-02-14 18:59:00,
2013-02-14 12:14:00,31.2,17.0,30.32,NW,323,13.0,-999.0,56,-99.99,,,0.00,225,weatherlink.com 1.10,2013-02-14 19:14:00,
2013-02-14 12:29:00,33.2,19.0,30.32,North,360,7.0,-999.0,56,-99.99,,,0.00,339,weatherlink.com 1.10,2013-02-14 19:29:00,
2013-02-14 12:44:00,30.9,21.0,30.33,NNW,329,6.0,-999.0,66,-99.99,,,0.00,33,weatherlink.com 1.10,2013-02-14 19:44:00,
2013-02-14 12:59:00,27.8,23.0,30.32,NNW,337,6.0,-999.0,81,-99.99,,,0.00,531,weatherlink.com 1.10,2013-02-14 19:59:00,
2013-02-14 13:14:00,27.2,22.0,30.34,NNW,343,10.0,-999.0,82,-99.99,,,0.00,265,weatherlink.com 1.10,2013-02-14 20:14:00,
2013-02-14 13:29:00,26.2,22.0,30.34,NNW,328,11.0,-999.0,84,-99.99,,,0.00,86,weatherlink.com 1.10,2013-02-14 20:29:00,
2013-02-14 13:44:00,27.3,23.0,30.34,NNW,346,10.0,-999.0,84,-99.99,,,0.00,373,weatherlink.com 1.10,2013-02-14 20:44:00,
2013-02-14 13:59:00,28.0,23.0,30.35,NNW,333,6.0,-999.0,80,-99.99,,,0.00,155,weatherlink.com 1.10,2013-02-14 20:59:00,
2013-02-14 14:14:00,28.0,21.0,30.36,NW,323,6.0,-999.0,76,-99.99,,,0.00,448,weatherlink.com 1.10,2013-02-14 21:14:00,
2013-02-14 14:29:00,30.1,21.0,30.36,NNW,333,10.0,-999.0,70,-99.99,,,0.00,459,weatherlink.com 1.10,2013-02-14 21:29:00,
2013-02-14 14:44:00,29.9,20.0,30.36,North,351,14.0,-999.0,66,-99.99,,,0.00,469,weatherlink.com 1.10,2013-02-14 21:44:00,
2013-02-14 14:59:00,29.8,20.0,30.37,NW,309,9.0,-999.0,66,-99.99,,,0.00,364,weatherlink.com 1.10,2013-02-14 21:59:00,
2013-02-14 15:14:00,29.0,19.0,30.38,NW,321,4.0,-999.0,67,-99.99,,,0.00,167,weatherlink.com 1.10,2013-02-14 22:14:00,
2013-02-14 15:29:00,29.0,17.0,30.38,NNW,333,10.0,-999.0,62,-99.99,,,0.00,153,weatherlink.com 1.10,2013-02-14 22:29:00,
2013-02-14 15:44:00,28.7,18.0,30.39,NNW,333,7.0,-999.0,65,-99.99,,,0.00,192,weatherlink.com 1.10,2013-02-14 22:44:00,
2013-02-14 16:00:00,29.2,18.0,30.40,NNW,331,4.0,-999.0,62,-99.99,,,0.00,190,weatherlink.com 1.10,2013-02-14 23:00:00,
2013-02-14 16:15:00,28.6,17.0,30.40,North,360,8.0,-999.0,62,-99.99,,,0.00,141,weatherlink.com 1.10,2013-02-14 23:15:00,
2013-02-14 16:30:00,27.9,16.0,30.41,North,349,4.0,-999.0,61,-99.99,,,0.00,72,weatherlink.com 1.10,2013-02-14 23:30:00,
2013-02-14 16:45:00,27.6,16.0,30.41,North,355,3.0,-999.0,61,-99.99,,,0.00,16,weatherlink.com 1.10,2013-02-14 23:45:00,
2013-02-14 17:00:00,26.8,14.0,30.42,North,355,4.0,-999.0,60,-99.99,,,0.00,16,weatherlink.com 1.10,2013-02-15 00:00:00,
2013-02-14 17:15:00,26.3,15.0,30.42,North,355,3.0,-999.0,63,-99.99,,,0.00,5,weatherlink.com 1.10,2013-02-15 00:15:00,
2013-02-14 17:30:00,25.7,15.0,30.42,North,355,2.0,-999.0,63,-99.99,,,0.00,0,weatherlink.com 1.10,2013-02-15 00:30:00,
2013-02-14 17:45:00,25.3,14.0,30.43,North,355,2.0,-999.0,62,-99.99,,,0.00,0,weatherlink.com 1.10,2013-02-15 00:45:00,
2013-02-14 18:15:00,24.6,13.0,30.44,North,355,3.0,-999.0,61,-99.99,,,0.00,0,weatherlink.com 1.10,2013-02-15 01:15:00,
2013-02-14 18:30:00,24.2,12.0,30.43,North,355,2.0,-999.0,59,-99.99,,,0.00,0,weatherlink.com 1.10,2013-02-15 01:30:00,
2013-02-14 18:45:00,24.1,12.0,30.43,North,355,2.0,-999.0,59,-99.99,,,0.00,0,weatherlink.com 1.10,2013-02-15 01:45:00,
2013-02-14 19:00:00,23.8,12.0,30.44,North,355,1.0,-999.0,60,-99.99,,,0.00,0,weatherlink.com 1.10,2013-02-15 02:00:00,
2013-02-14 19:15:00,23.6,12.0,30.44,North,355,1.0,-999.0,61,-99.99,,,0.00,0,weatherlink.com 1.10,2013-02-15 02:15:00,
2013-02-14 19:30:00,22.8,12.0,30.44,North,355,0.0,-999.0,63,-99.99,,,0.00,0,weatherlink.com 1.10,2013-02-15 02:30:00,
2013-02-14 19:45:00,22.5,12.0,30.44,North,355,1.0,-999.0,65,-99.99,,,0.00,0,weatherlink.com 1.10,2013-02-15 02:45:00,
2013-02-14 20:00:00,22.2,11.0,30.44,North,355,0.0,-999.0,63,-99.99,,,0.00,0,weatherlink.com 1.10,2013-02-15 03:00:00,
2013-02-14 20:15:00,22.0,11.0,30.45,North,355,1.0,-999.0,64,-99.99,,,0.00,0,weatherlink.com 1.10,2013-02-15 03:15:00,
2013-02-14 20:30:00,21.1,11.0,30.45,North,355,0.0,-999.0,65,-99.99,,,0.00,0,weatherlink.com 1.10,2013-02-15 03:30:00,
2013-02-14 20:45:00,19.7,10.0,30.45,North,355,0.0,-999.0,66,-99.99,,,0.00,0,weatherlink.com 1.10,2013-02-15 03:45:00,
2013-02-14 21:00:00,19.2,10.0,30.45,North,355,0.0,-999.0,68,-99.99,,,0.00,0,weatherlink.com 1.10,2013-02-15 04:00:00,
2013-02-14 21:15:00,18.6,10.0,30.45,North,355,0.0,-999.0,69,-99.99,,,0.00,0,weatherlink.com 1.10,2013-02-15 04:15:00,
2013-02-14 21:30:00,18.0,10.0,30.45,North,355,0.0,-999.0,70,-99.99,,,0.00,0,weatherlink.com 1.10,2013-02-15 04:30:00,
2013-02-14 21:45:00,17.2,9.0,30.45,North,355,0.0,-999.0,71,-99.99,,,0.00,0,weatherlink.com 1.10,2013-02-15 04:45:00,
2013-02-14 22:00:00,16.7,9.0,30.45,North,355,0.0,-999.0,73,-99.99,,,0.00,0,weatherlink.com 1.10,2013-02-15 05:00:00,
2013-02-14 22:15:00,16.2,9.0,30.46,North,355,0.0,-999.0,74,-99.99,,,0.00,0,weatherlink.com 1.10,2013-02-15 05:15:00,
2013-02-14 22:30:00,16.1,9.0,30.46,North,355,0.0,-999.0,74,-99.99,,,0.00,0,weatherlink.com 1.10,2013-02-15 05:30:00,
2013-02-14 22:45:00,15.7,9.0,30.46,North,355,0.0,-999.0,74,-99.99,,,0.00,0,weatherlink.com 1.10,2013-02-15 05:45:00,
2013-02-14 23:00:00,15.4,9.0,30.46,North,355,1.0,-999.0,74,-99.99,,,0.00,0,weatherlink.com 1.10,2013-02-15 06:00:00,
2013-02-14 23:15:00,16.0,8.0,30.46,North,355,0.0,-999.0,72,-99.99,,,0.00,0,weatherlink.com 1.10,2013-02-15 06:15:00,
2013-02-14 23:30:00,15.7,8.0,30.46,North,355,0.0,-999.0,71,-99.99,,,0.00,0,weatherlink.com 1.10,2013-02-15 06:30:00,
2013-02-14 23:45:00,14.9,7.0,30.46,North,355,0.0,-999.0,71,-99.99,,,0.00,0,weatherlink.com 1.10,2013-02-15 06:45:00,